sensor_id;sensor_type;location;lat;lon;timestamp;P1;durP1;ratioP1;P2;durP2;ratioP2
60016;SDS011;45869;52.698;6.210;2023-07-30T00:01:52;7.80;;;3.17;;
60016;SDS011;45869;52.698;6.210;2023-07-30T00:04:18;7.68;;;3.33;;
60016;SDS011;45869;52.698;6.210;2023-07-30T00:06:44;9.60;;;3.55;;
60016;SDS011;45869;52.698;6.210;2023-07-30T00:09:10;9.32;;;3.42;;
60016;SDS011;45869;52.698;6.210;2023-07-30T00:11:36;7.57;;;3.50;;
60016;SDS011;45869;52.698;6.210;2023-07-30T00:14:02;8.38;;;3.40;;
60016;SDS011;45869;52.698;6.210;2023-07-30T00:16:28;9.10;;;3.83;;
60016;SDS011;45869;52.698;6.210;2023-07-30T00:18:54;8.52;;;3.42;;
60016;SDS011;45869;52.698;6.210;2023-07-30T00:21:21;9.18;;;3.28;;
60016;SDS011;45869;52.698;6.210;2023-07-30T00:23:47;12.00;;;3.97;;
60016;SDS011;45869;52.698;6.210;2023-07-30T00:26:13;9.27;;;3.30;;
60016;SDS011;45869;52.698;6.210;2023-07-30T00:28:39;9.23;;;3.78;;
60016;SDS011;45869;52.698;6.210;2023-07-30T00:31:05;7.65;;;3.40;;
60016;SDS011;45869;52.698;6.210;2023-07-30T00:33:31;9.15;;;3.42;;
60016;SDS011;45869;52.698;6.210;2023-07-30T00:35:57;8.73;;;4.03;;
60016;SDS011;45869;52.698;6.210;2023-07-30T00:38:23;8.38;;;3.30;;
60016;SDS011;45869;52.698;6.210;2023-07-30T00:40:50;6.90;;;3.03;;
60016;SDS011;45869;52.698;6.210;2023-07-30T00:43:16;8.43;;;3.63;;
60016;SDS011;45869;52.698;6.210;2023-07-30T00:45:42;10.82;;;3.50;;
60016;SDS011;45869;52.698;6.210;2023-07-30T00:48:10;8.60;;;3.10;;
60016;SDS011;45869;52.698;6.210;2023-07-30T00:50:36;8.98;;;3.20;;
60016;SDS011;45869;52.698;6.210;2023-07-30T00:53:03;8.77;;;3.50;;
60016;SDS011;45869;52.698;6.210;2023-07-30T00:55:29;10.50;;;3.38;;
60016;SDS011;45869;52.698;6.210;2023-07-30T00:57:56;9.13;;;3.35;;
60016;SDS011;45869;52.698;6.210;2023-07-30T01:00:22;8.77;;;3.55;;
60016;SDS011;45869;52.698;6.210;2023-07-30T01:02:50;11.45;;;3.65;;
60016;SDS011;45869;52.698;6.210;2023-07-30T01:05:16;9.18;;;2.97;;
60016;SDS011;45869;52.698;6.210;2023-07-30T01:07:42;8.18;;;3.33;;
60016;SDS011;45869;52.698;6.210;2023-07-30T01:10:08;12.80;;;3.80;;
60016;SDS011;45869;52.698;6.210;2023-07-30T01:12:34;9.57;;;3.20;;
60016;SDS011;45869;52.698;6.210;2023-07-30T01:15:01;8.48;;;3.00;;
60016;SDS011;45869;52.698;6.210;2023-07-30T01:17:28;11.75;;;3.38;;
60016;SDS011;45869;52.698;6.210;2023-07-30T01:19:54;9.75;;;3.08;;
60016;SDS011;45869;52.698;6.210;2023-07-30T01:22:21;8.70;;;3.10;;
60016;SDS011;45869;52.698;6.210;2023-07-30T01:24:47;8.10;;;2.85;;
60016;SDS011;45869;52.698;6.210;2023-07-30T01:27:24;12.30;;;3.13;;
60016;SDS011;45869;52.698;6.210;2023-07-30T01:29:52;6.70;;;2.80;;
60016;SDS011;45869;52.698;6.210;2023-07-30T01:32:24;7.60;;;2.95;;
60016;SDS011;45869;52.698;6.210;2023-07-30T01:34:55;7.57;;;2.65;;
60016;SDS011;45869;52.698;6.210;2023-07-30T01:37:21;7.90;;;3.25;;
60016;SDS011;45869;52.698;6.210;2023-07-30T01:39:48;7.50;;;2.85;;
60016;SDS011;45869;52.698;6.210;2023-07-30T01:42:15;8.25;;;2.85;;
60016;SDS011;45869;52.698;6.210;2023-07-30T01:44:41;8.02;;;2.70;;
60016;SDS011;45869;52.698;6.210;2023-07-30T01:47:07;10.00;;;2.75;;
60016;SDS011;45869;52.698;6.210;2023-07-30T01:49:33;6.93;;;2.70;;
60016;SDS011;45869;52.698;6.210;2023-07-30T01:51:59;9.98;;;3.15;;
60016;SDS011;45869;52.698;6.210;2023-07-30T01:54:25;9.05;;;2.83;;
60016;SDS011;45869;52.698;6.210;2023-07-30T01:56:52;9.68;;;2.95;;
60016;SDS011;45869;52.698;6.210;2023-07-30T01:59:18;8.32;;;2.72;;
60016;SDS011;45869;52.698;6.210;2023-07-30T02:01:44;10.07;;;3.05;;
60016;SDS011;45869;52.698;6.210;2023-07-30T02:04:10;7.82;;;2.70;;
60016;SDS011;45869;52.698;6.210;2023-07-30T02:06:36;11.23;;;3.10;;
60016;SDS011;45869;52.698;6.210;2023-07-30T02:09:02;6.80;;;2.35;;
60016;SDS011;45869;52.698;6.210;2023-07-30T02:11:28;10.48;;;2.60;;
60016;SDS011;45869;52.698;6.210;2023-07-30T02:13:54;7.93;;;2.75;;
60016;SDS011;45869;52.698;6.210;2023-07-30T02:16:20;7.47;;;2.75;;
60016;SDS011;45869;52.698;6.210;2023-07-30T02:18:46;11.73;;;3.00;;
60016;SDS011;45869;52.698;6.210;2023-07-30T02:21:12;9.95;;;2.88;;
60016;SDS011;45869;52.698;6.210;2023-07-30T02:23:38;9.32;;;2.72;;
60016;SDS011;45869;52.698;6.210;2023-07-30T02:26:04;8.43;;;2.75;;
60016;SDS011;45869;52.698;6.210;2023-07-30T02:28:30;6.65;;;2.05;;
60016;SDS011;45869;52.698;6.210;2023-07-30T02:30:56;11.65;;;3.40;;
60016;SDS011;45869;52.698;6.210;2023-07-30T02:33:22;7.88;;;2.50;;
60016;SDS011;45869;52.698;6.210;2023-07-30T02:35:48;6.38;;;2.13;;
60016;SDS011;45869;52.698;6.210;2023-07-30T02:38:14;8.80;;;2.80;;
60016;SDS011;45869;52.698;6.210;2023-07-30T02:40:40;11.18;;;3.17;;
60016;SDS011;45869;52.698;6.210;2023-07-30T02:43:06;9.00;;;2.75;;
60016;SDS011;45869;52.698;6.210;2023-07-30T02:45:32;8.88;;;2.65;;
60016;SDS011;45869;52.698;6.210;2023-07-30T02:47:58;10.55;;;2.75;;
60016;SDS011;45869;52.698;6.210;2023-07-30T02:50:24;8.10;;;2.55;;
60016;SDS011;45869;52.698;6.210;2023-07-30T02:52:50;8.02;;;2.47;;
60016;SDS011;45869;52.698;6.210;2023-07-30T02:55:16;8.27;;;2.88;;
60016;SDS011;45869;52.698;6.210;2023-07-30T02:57:43;7.75;;;2.38;;
60016;SDS011;45869;52.698;6.210;2023-07-30T03:00:09;8.95;;;2.65;;
60016;SDS011;45869;52.698;6.210;2023-07-30T03:02:36;8.75;;;2.55;;
60016;SDS011;45869;52.698;6.210;2023-07-30T03:05:02;8.82;;;2.83;;
60016;SDS011;45869;52.698;6.210;2023-07-30T03:07:28;5.72;;;2.38;;
60016;SDS011;45869;52.698;6.210;2023-07-30T03:09:54;6.43;;;2.50;;
60016;SDS011;45869;52.698;6.210;2023-07-30T03:12:20;8.88;;;2.75;;
60016;SDS011;45869;52.698;6.210;2023-07-30T03:14:46;10.77;;;2.90;;
60016;SDS011;45869;52.698;6.210;2023-07-30T03:17:12;5.07;;;2.15;;
60016;SDS011;45869;52.698;6.210;2023-07-30T03:19:38;8.40;;;2.72;;
60016;SDS011;45869;52.698;6.210;2023-07-30T03:22:04;10.45;;;2.92;;
60016;SDS011;45869;52.698;6.210;2023-07-30T03:24:30;8.70;;;2.88;;
60016;SDS011;45869;52.698;6.210;2023-07-30T03:26:56;6.97;;;2.20;;
60016;SDS011;45869;52.698;6.210;2023-07-30T03:29:22;8.85;;;2.47;;
60016;SDS011;45869;52.698;6.210;2023-07-30T03:31:48;8.77;;;2.80;;
60016;SDS011;45869;52.698;6.210;2023-07-30T03:34:14;6.50;;;2.63;;
60016;SDS011;45869;52.698;6.210;2023-07-30T03:36:40;9.23;;;3.05;;
60016;SDS011;45869;52.698;6.210;2023-07-30T03:39:06;7.43;;;2.85;;
60016;SDS011;45869;52.698;6.210;2023-07-30T03:41:32;9.05;;;3.20;;
60016;SDS011;45869;52.698;6.210;2023-07-30T03:44:00;6.80;;;2.80;;
60016;SDS011;45869;52.698;6.210;2023-07-30T03:46:26;7.22;;;2.80;;
60016;SDS011;45869;52.698;6.210;2023-07-30T03:48:52;7.43;;;2.70;;
60016;SDS011;45869;52.698;6.210;2023-07-30T03:51:18;8.52;;;2.88;;
60016;SDS011;45869;52.698;6.210;2023-07-30T03:53:44;7.60;;;2.70;;
60016;SDS011;45869;52.698;6.210;2023-07-30T03:56:10;7.38;;;2.67;;
60016;SDS011;45869;52.698;6.210;2023-07-30T03:58:36;7.47;;;2.78;;
60016;SDS011;45869;52.698;6.210;2023-07-30T04:01:02;8.07;;;2.80;;
60016;SDS011;45869;52.698;6.210;2023-07-30T04:03:28;8.30;;;2.70;;
60016;SDS011;45869;52.698;6.210;2023-07-30T04:05:54;8.32;;;3.00;;
60016;SDS011;45869;52.698;6.210;2023-07-30T04:08:20;8.88;;;3.00;;
60016;SDS011;45869;52.698;6.210;2023-07-30T04:10:46;9.38;;;3.40;;
60016;SDS011;45869;52.698;6.210;2023-07-30T04:13:13;9.52;;;3.03;;
60016;SDS011;45869;52.698;6.210;2023-07-30T04:15:39;8.40;;;3.25;;
60016;SDS011;45869;52.698;6.210;2023-07-30T04:18:05;11.05;;;3.20;;
60016;SDS011;45869;52.698;6.210;2023-07-30T04:20:31;8.70;;;3.20;;
60016;SDS011;45869;52.698;6.210;2023-07-30T04:22:57;7.93;;;2.70;;
60016;SDS011;45869;52.698;6.210;2023-07-30T04:25:23;9.55;;;3.42;;
60016;SDS011;45869;52.698;6.210;2023-07-30T04:27:49;9.50;;;3.28;;
60016;SDS011;45869;52.698;6.210;2023-07-30T04:30:15;11.10;;;3.70;;
60016;SDS011;45869;52.698;6.210;2023-07-30T04:32:41;11.38;;;2.97;;
60016;SDS011;45869;52.698;6.210;2023-07-30T04:35:07;8.70;;;3.00;;
60016;SDS011;45869;52.698;6.210;2023-07-30T04:37:33;10.25;;;3.03;;
60016;SDS011;45869;52.698;6.210;2023-07-30T04:39:59;9.20;;;3.25;;
60016;SDS011;45869;52.698;6.210;2023-07-30T04:42:25;12.82;;;4.07;;
60016;SDS011;45869;52.698;6.210;2023-07-30T04:44:51;8.85;;;3.33;;
60016;SDS011;45869;52.698;6.210;2023-07-30T04:47:17;10.15;;;3.30;;
60016;SDS011;45869;52.698;6.210;2023-07-30T04:49:43;9.18;;;3.13;;
60016;SDS011;45869;52.698;6.210;2023-07-30T04:52:09;9.80;;;3.47;;
60016;SDS011;45869;52.698;6.210;2023-07-30T04:54:35;9.20;;;3.05;;
60016;SDS011;45869;52.698;6.210;2023-07-30T04:57:02;12.23;;;3.78;;
60016;SDS011;45869;52.698;6.210;2023-07-30T04:59:29;12.15;;;3.58;;
60016;SDS011;45869;52.698;6.210;2023-07-30T05:01:55;12.23;;;3.47;;
60016;SDS011;45869;52.698;6.210;2023-07-30T05:04:21;10.40;;;3.53;;
60016;SDS011;45869;52.698;6.210;2023-07-30T05:06:47;11.90;;;3.70;;
60016;SDS011;45869;52.698;6.210;2023-07-30T05:09:13;11.45;;;3.53;;
60016;SDS011;45869;52.698;6.210;2023-07-30T05:11:39;11.43;;;3.22;;
60016;SDS011;45869;52.698;6.210;2023-07-30T05:14:05;9.07;;;3.13;;
60016;SDS011;45869;52.698;6.210;2023-07-30T05:16:31;10.63;;;4.00;;
60016;SDS011;45869;52.698;6.210;2023-07-30T05:18:57;12.25;;;3.30;;
60016;SDS011;45869;52.698;6.210;2023-07-30T05:21:23;9.45;;;3.05;;
60016;SDS011;45869;52.698;6.210;2023-07-30T05:23:49;14.70;;;4.15;;
60016;SDS011;45869;52.698;6.210;2023-07-30T05:26:15;11.85;;;4.05;;
60016;SDS011;45869;52.698;6.210;2023-07-30T05:28:41;12.35;;;4.00;;
60016;SDS011;45869;52.698;6.210;2023-07-30T05:31:07;15.18;;;3.83;;
60016;SDS011;45869;52.698;6.210;2023-07-30T05:33:33;13.95;;;4.00;;
60016;SDS011;45869;52.698;6.210;2023-07-30T05:35:59;12.35;;;3.55;;
60016;SDS011;45869;52.698;6.210;2023-07-30T05:38:25;11.43;;;3.65;;
60016;SDS011;45869;52.698;6.210;2023-07-30T05:40:51;12.32;;;3.83;;
60016;SDS011;45869;52.698;6.210;2023-07-30T05:43:17;12.20;;;3.63;;
60016;SDS011;45869;52.698;6.210;2023-07-30T05:45:43;17.35;;;4.03;;
60016;SDS011;45869;52.698;6.210;2023-07-30T05:48:09;14.27;;;4.00;;
60016;SDS011;45869;52.698;6.210;2023-07-30T05:50:36;14.32;;;3.60;;
60016;SDS011;45869;52.698;6.210;2023-07-30T05:53:02;9.40;;;3.58;;
60016;SDS011;45869;52.698;6.210;2023-07-30T05:55:28;13.70;;;4.05;;
60016;SDS011;45869;52.698;6.210;2023-07-30T05:57:54;15.20;;;4.00;;
60016;SDS011;45869;52.698;6.210;2023-07-30T06:00:21;12.80;;;3.63;;
60016;SDS011;45869;52.698;6.210;2023-07-30T06:02:47;14.30;;;4.07;;
60016;SDS011;45869;52.698;6.210;2023-07-30T06:05:13;9.77;;;3.08;;
60016;SDS011;45869;52.698;6.210;2023-07-30T06:07:39;12.13;;;3.90;;
60016;SDS011;45869;52.698;6.210;2023-07-30T06:10:05;11.70;;;3.30;;
60016;SDS011;45869;52.698;6.210;2023-07-30T06:12:31;17.23;;;3.70;;
60016;SDS011;45869;52.698;6.210;2023-07-30T06:14:57;12.60;;;3.95;;
60016;SDS011;45869;52.698;6.210;2023-07-30T06:17:23;14.75;;;4.05;;
60016;SDS011;45869;52.698;6.210;2023-07-30T06:19:49;14.10;;;4.40;;
60016;SDS011;45869;52.698;6.210;2023-07-30T06:24:51;15.07;;;3.85;;
60016;SDS011;45869;52.698;6.210;2023-07-30T06:27:17;13.25;;;3.90;;
60016;SDS011;45869;52.698;6.210;2023-07-30T06:29:44;11.93;;;3.58;;
60016;SDS011;45869;52.698;6.210;2023-07-30T06:32:10;12.95;;;4.05;;
60016;SDS011;45869;52.698;6.210;2023-07-30T06:34:36;12.45;;;3.53;;
60016;SDS011;45869;52.698;6.210;2023-07-30T06:37:02;12.93;;;3.75;;
60016;SDS011;45869;52.698;6.210;2023-07-30T06:39:28;14.13;;;4.07;;
60016;SDS011;45869;52.698;6.210;2023-07-30T06:41:54;13.43;;;3.78;;
60016;SDS011;45869;52.698;6.210;2023-07-30T06:44:20;19.17;;;3.80;;
60016;SDS011;45869;52.698;6.210;2023-07-30T06:46:49;10.68;;;3.53;;
60016;SDS011;45869;52.698;6.210;2023-07-30T06:49:15;12.80;;;3.53;;
60016;SDS011;45869;52.698;6.210;2023-07-30T06:51:41;12.30;;;3.67;;
60016;SDS011;45869;52.698;6.210;2023-07-30T06:54:09;15.07;;;3.58;;
60016;SDS011;45869;52.698;6.210;2023-07-30T06:56:35;15.10;;;3.63;;
60016;SDS011;45869;52.698;6.210;2023-07-30T06:59:02;13.48;;;3.72;;
60016;SDS011;45869;52.698;6.210;2023-07-30T07:01:28;14.05;;;3.95;;
60016;SDS011;45869;52.698;6.210;2023-07-30T07:03:54;12.43;;;3.35;;
60016;SDS011;45869;52.698;6.210;2023-07-30T07:06:20;14.95;;;3.83;;
60016;SDS011;45869;52.698;6.210;2023-07-30T07:08:46;13.00;;;3.33;;
60016;SDS011;45869;52.698;6.210;2023-07-30T07:11:12;12.48;;;3.83;;
60016;SDS011;45869;52.698;6.210;2023-07-30T07:13:38;13.95;;;3.65;;
60016;SDS011;45869;52.698;6.210;2023-07-30T07:16:04;8.32;;;3.33;;
60016;SDS011;45869;52.698;6.210;2023-07-30T07:18:31;12.18;;;3.65;;
60016;SDS011;45869;52.698;6.210;2023-07-30T07:20:57;12.35;;;3.45;;
60016;SDS011;45869;52.698;6.210;2023-07-30T07:23:23;16.08;;;4.03;;
60016;SDS011;45869;52.698;6.210;2023-07-30T07:25:49;13.40;;;3.47;;
60016;SDS011;45869;52.698;6.210;2023-07-30T07:28:15;12.52;;;3.75;;
60016;SDS011;45869;52.698;6.210;2023-07-30T07:30:43;16.83;;;4.05;;
60016;SDS011;45869;52.698;6.210;2023-07-30T07:33:09;12.80;;;3.63;;
60016;SDS011;45869;52.698;6.210;2023-07-30T07:35:38;14.02;;;4.03;;
60016;SDS011;45869;52.698;6.210;2023-07-30T07:38:05;14.20;;;3.88;;
60016;SDS011;45869;52.698;6.210;2023-07-30T07:40:35;17.58;;;3.80;;
60016;SDS011;45869;52.698;6.210;2023-07-30T07:43:01;13.85;;;3.80;;
60016;SDS011;45869;52.698;6.210;2023-07-30T07:45:27;15.02;;;3.15;;
60016;SDS011;45869;52.698;6.210;2023-07-30T07:47:53;16.05;;;3.70;;
60016;SDS011;45869;52.698;6.210;2023-07-30T07:50:19;11.65;;;2.65;;
60016;SDS011;45869;52.698;6.210;2023-07-30T07:52:45;13.20;;;3.13;;
60016;SDS011;45869;52.698;6.210;2023-07-30T07:55:11;11.57;;;3.60;;
60016;SDS011;45869;52.698;6.210;2023-07-30T07:57:37;11.57;;;3.40;;
60016;SDS011;45869;52.698;6.210;2023-07-30T08:00:03;11.20;;;3.10;;
60016;SDS011;45869;52.698;6.210;2023-07-30T08:02:30;11.40;;;3.13;;
60016;SDS011;45869;52.698;6.210;2023-07-30T08:04:56;11.63;;;3.10;;
60016;SDS011;45869;52.698;6.210;2023-07-30T08:07:22;10.23;;;2.78;;
60016;SDS011;45869;52.698;6.210;2023-07-30T08:09:48;13.85;;;3.60;;
60016;SDS011;45869;52.698;6.210;2023-07-30T08:12:16;10.35;;;3.00;;
60016;SDS011;45869;52.698;6.210;2023-07-30T08:14:42;11.18;;;3.00;;
60016;SDS011;45869;52.698;6.210;2023-07-30T08:17:08;8.98;;;3.42;;
60016;SDS011;45869;52.698;6.210;2023-07-30T08:19:34;9.40;;;2.83;;
60016;SDS011;45869;52.698;6.210;2023-07-30T08:22:00;13.70;;;3.47;;
60016;SDS011;45869;52.698;6.210;2023-07-30T08:24:26;10.68;;;3.15;;
60016;SDS011;45869;52.698;6.210;2023-07-30T08:26:52;7.55;;;2.70;;
60016;SDS011;45869;52.698;6.210;2023-07-30T08:29:18;8.25;;;3.22;;
60016;SDS011;45869;52.698;6.210;2023-07-30T08:31:44;11.40;;;2.85;;
60016;SDS011;45869;52.698;6.210;2023-07-30T08:34:10;8.68;;;2.80;;
60016;SDS011;45869;52.698;6.210;2023-07-30T08:36:36;10.90;;;3.20;;
60016;SDS011;45869;52.698;6.210;2023-07-30T08:39:02;9.93;;;2.97;;
60016;SDS011;45869;52.698;6.210;2023-07-30T08:41:29;8.57;;;3.00;;
60016;SDS011;45869;52.698;6.210;2023-07-30T08:43:55;10.35;;;2.92;;
60016;SDS011;45869;52.698;6.210;2023-07-30T08:46:21;12.80;;;3.10;;
60016;SDS011;45869;52.698;6.210;2023-07-30T08:48:47;12.05;;;3.40;;
60016;SDS011;45869;52.698;6.210;2023-07-30T08:51:13;10.05;;;2.97;;
60016;SDS011;45869;52.698;6.210;2023-07-30T08:53:40;8.25;;;2.53;;
60016;SDS011;45869;52.698;6.210;2023-07-30T08:56:06;8.77;;;2.38;;
60016;SDS011;45869;52.698;6.210;2023-07-30T08:58:33;8.63;;;2.35;;
60016;SDS011;45869;52.698;6.210;2023-07-30T09:01:00;6.55;;;2.45;;
60016;SDS011;45869;52.698;6.210;2023-07-30T09:03:27;9.45;;;2.63;;
60016;SDS011;45869;52.698;6.210;2023-07-30T09:05:53;9.35;;;2.38;;
60016;SDS011;45869;52.698;6.210;2023-07-30T09:08:19;14.30;;;2.88;;
60016;SDS011;45869;52.698;6.210;2023-07-30T09:10:45;9.35;;;2.55;;
60016;SDS011;45869;52.698;6.210;2023-07-30T09:13:11;9.32;;;2.65;;
60016;SDS011;45869;52.698;6.210;2023-07-30T09:15:44;8.27;;;2.37;;
60016;SDS011;45869;52.698;6.210;2023-07-30T09:18:16;10.18;;;2.55;;
60016;SDS011;45869;52.698;6.210;2023-07-30T09:20:45;9.20;;;2.42;;
60016;SDS011;45869;52.698;6.210;2023-07-30T09:23:12;12.13;;;3.08;;
60016;SDS011;45869;52.698;6.210;2023-07-30T09:25:38;10.23;;;2.75;;
60016;SDS011;45869;52.698;6.210;2023-07-30T09:28:05;6.57;;;1.70;;
60016;SDS011;45869;52.698;6.210;2023-07-30T09:30:31;6.38;;;1.10;;
60016;SDS011;45869;52.698;6.210;2023-07-30T09:32:58;4.05;;;0.95;;
60016;SDS011;45869;52.698;6.210;2023-07-30T09:35:25;4.57;;;0.75;;
60016;SDS011;45869;52.698;6.210;2023-07-30T09:38:00;4.25;;;0.90;;
60016;SDS011;45869;52.698;6.210;2023-07-30T09:40:34;8.07;;;1.50;;
60016;SDS011;45869;52.698;6.210;2023-07-30T09:43:02;4.50;;;1.20;;
60016;SDS011;45869;52.698;6.210;2023-07-30T09:45:28;5.95;;;1.10;;
60016;SDS011;45869;52.698;6.210;2023-07-30T09:47:58;6.18;;;1.35;;
60016;SDS011;45869;52.698;6.210;2023-07-30T09:50:24;6.50;;;1.33;;
60016;SDS011;45869;52.698;6.210;2023-07-30T09:52:50;4.30;;;1.10;;
60016;SDS011;45869;52.698;6.210;2023-07-30T09:55:16;4.50;;;1.30;;
60016;SDS011;45869;52.698;6.210;2023-07-30T09:57:45;5.78;;;1.20;;
60016;SDS011;45869;52.698;6.210;2023-07-30T10:00:12;6.63;;;1.77;;
60016;SDS011;45869;52.698;6.210;2023-07-30T10:02:39;4.35;;;1.10;;
60016;SDS011;45869;52.698;6.210;2023-07-30T10:05:09;6.15;;;1.50;;
60016;SDS011;45869;52.698;6.210;2023-07-30T10:07:37;6.38;;;1.60;;
60016;SDS011;45869;52.698;6.210;2023-07-30T10:10:04;6.70;;;1.38;;
60016;SDS011;45869;52.698;6.210;2023-07-30T10:12:31;6.00;;;1.25;;
60016;SDS011;45869;52.698;6.210;2023-07-30T10:14:58;7.65;;;1.73;;
60016;SDS011;45869;52.698;6.210;2023-07-30T10:17:24;6.05;;;1.48;;
60016;SDS011;45869;52.698;6.210;2023-07-30T10:19:50;7.25;;;1.35;;
60016;SDS011;45869;52.698;6.210;2023-07-30T10:22:23;5.60;;;1.30;;
60016;SDS011;45869;52.698;6.210;2023-07-30T10:27:16;5.30;;;1.17;;
60016;SDS011;45869;52.698;6.210;2023-07-30T10:30:07;5.28;;;1.30;;
60016;SDS011;45869;52.698;6.210;2023-07-30T10:38:45;6.70;;;1.38;;
60016;SDS011;45869;52.698;6.210;2023-07-30T10:43:35;6.38;;;1.20;;
60016;SDS011;45869;52.698;6.210;2023-07-30T10:46:01;4.43;;;1.00;;
60016;SDS011;45869;52.698;6.210;2023-07-30T10:48:34;5.05;;;1.20;;
60016;SDS011;45869;52.698;6.210;2023-07-30T10:51:01;7.57;;;1.50;;
60016;SDS011;45869;52.698;6.210;2023-07-30T10:53:28;4.43;;;1.00;;
60016;SDS011;45869;52.698;6.210;2023-07-30T10:55:54;4.68;;;1.10;;
60016;SDS011;45869;52.698;6.210;2023-07-30T10:58:24;4.75;;;1.20;;
60016;SDS011;45869;52.698;6.210;2023-07-30T11:00:50;5.45;;;1.20;;
60016;SDS011;45869;52.698;6.210;2023-07-30T11:03:16;4.40;;;0.82;;
60016;SDS011;45869;52.698;6.210;2023-07-30T11:05:45;5.35;;;1.20;;
60016;SDS011;45869;52.698;6.210;2023-07-30T11:08:12;6.82;;;1.35;;
60016;SDS011;45869;52.698;6.210;2023-07-30T11:10:41;6.93;;;1.02;;
60016;SDS011;45869;52.698;6.210;2023-07-30T11:13:08;7.68;;;1.20;;
60016;SDS011;45869;52.698;6.210;2023-07-30T11:15:39;5.82;;;1.10;;
60016;SDS011;45869;52.698;6.210;2023-07-30T11:18:06;8.33;;;1.23;;
60016;SDS011;45869;52.698;6.210;2023-07-30T11:20:32;5.40;;;0.80;;
60016;SDS011;45869;52.698;6.210;2023-07-30T11:22:58;6.65;;;1.35;;
60016;SDS011;45869;52.698;6.210;2023-07-30T11:25:24;6.82;;;1.55;;
60016;SDS011;45869;52.698;6.210;2023-07-30T11:27:50;5.13;;;1.00;;
60016;SDS011;45869;52.698;6.210;2023-07-30T11:30:17;8.95;;;1.35;;
60016;SDS011;45869;52.698;6.210;2023-07-30T11:32:44;4.22;;;1.13;;
60016;SDS011;45869;52.698;6.210;2023-07-30T11:35:14;15.32;;;1.25;;
60016;SDS011;45869;52.698;6.210;2023-07-30T11:37:41;6.20;;;0.93;;
60016;SDS011;45869;52.698;6.210;2023-07-30T11:40:11;5.60;;;1.10;;
60016;SDS011;45869;52.698;6.210;2023-07-30T11:42:37;5.47;;;1.17;;
60016;SDS011;45869;52.698;6.210;2023-07-30T11:45:25;5.15;;;0.80;;
60016;SDS011;45869;52.698;6.210;2023-07-30T11:47:51;4.57;;;0.90;;
60016;SDS011;45869;52.698;6.210;2023-07-30T11:50:17;5.03;;;0.93;;
60016;SDS011;45869;52.698;6.210;2023-07-30T11:52:53;5.70;;;0.95;;
60016;SDS011;45869;52.698;6.210;2023-07-30T11:55:19;4.43;;;1.10;;
60016;SDS011;45869;52.698;6.210;2023-07-30T11:57:45;6.25;;;0.90;;
60016;SDS011;45869;52.698;6.210;2023-07-30T12:00:11;4.38;;;0.85;;
60016;SDS011;45869;52.698;6.210;2023-07-30T12:02:38;5.35;;;1.02;;
60016;SDS011;45869;52.698;6.210;2023-07-30T12:05:04;5.70;;;0.95;;
60016;SDS011;45869;52.698;6.210;2023-07-30T12:07:32;4.97;;;0.80;;
60016;SDS011;45869;52.698;6.210;2023-07-30T12:10:08;4.22;;;0.60;;
60016;SDS011;45869;52.698;6.210;2023-07-30T12:12:34;4.65;;;0.98;;
60016;SDS011;45869;52.698;6.210;2023-07-30T12:15:00;4.13;;;0.77;;
60016;SDS011;45869;52.698;6.210;2023-07-30T12:17:26;4.53;;;1.02;;
60016;SDS011;45869;52.698;6.210;2023-07-30T12:19:52;6.82;;;1.00;;
60016;SDS011;45869;52.698;6.210;2023-07-30T12:22:18;6.18;;;1.05;;
60016;SDS011;45869;52.698;6.210;2023-07-30T12:24:44;6.10;;;1.20;;
60016;SDS011;45869;52.698;6.210;2023-07-30T12:27:10;7.10;;;1.58;;
60016;SDS011;45869;52.698;6.210;2023-07-30T12:29:36;5.32;;;0.90;;
60016;SDS011;45869;52.698;6.210;2023-07-30T12:32:02;6.00;;;0.88;;
60016;SDS011;45869;52.698;6.210;2023-07-30T12:34:29;6.45;;;1.05;;
60016;SDS011;45869;52.698;6.210;2023-07-30T12:36:55;5.75;;;0.93;;
60016;SDS011;45869;52.698;6.210;2023-07-30T12:39:21;5.25;;;1.65;;
60016;SDS011;45869;52.698;6.210;2023-07-30T12:41:47;5.95;;;1.00;;
60016;SDS011;45869;52.698;6.210;2023-07-30T12:44:13;5.78;;;0.85;;
60016;SDS011;45869;52.698;6.210;2023-07-30T12:46:39;4.97;;;0.98;;
60016;SDS011;45869;52.698;6.210;2023-07-30T12:49:05;8.48;;;1.42;;
60016;SDS011;45869;52.698;6.210;2023-07-30T12:51:32;5.78;;;1.13;;
60016;SDS011;45869;52.698;6.210;2023-07-30T12:53:58;5.63;;;1.08;;
60016;SDS011;45869;52.698;6.210;2023-07-30T12:56:24;7.22;;;1.08;;
60016;SDS011;45869;52.698;6.210;2023-07-30T12:58:50;4.55;;;1.00;;
60016;SDS011;45869;52.698;6.210;2023-07-30T13:01:16;5.65;;;1.17;;
60016;SDS011;45869;52.698;6.210;2023-07-30T13:03:43;2.92;;;0.80;;
60016;SDS011;45869;52.698;6.210;2023-07-30T13:06:11;5.97;;;1.10;;
60016;SDS011;45869;52.698;6.210;2023-07-30T13:08:38;8.10;;;1.17;;
60016;SDS011;45869;52.698;6.210;2023-07-30T13:11:05;8.00;;;1.00;;
60016;SDS011;45869;52.698;6.210;2023-07-30T13:13:31;6.55;;;1.20;;
60016;SDS011;45869;52.698;6.210;2023-07-30T13:15:58;4.50;;;0.77;;
60016;SDS011;45869;52.698;6.210;2023-07-30T13:18:26;4.35;;;0.80;;
60016;SDS011;45869;52.698;6.210;2023-07-30T13:20:52;4.60;;;0.80;;
60016;SDS011;45869;52.698;6.210;2023-07-30T13:23:18;5.32;;;0.98;;
60016;SDS011;45869;52.698;6.210;2023-07-30T13:25:44;6.82;;;1.02;;
60016;SDS011;45869;52.698;6.210;2023-07-30T13:28:10;5.35;;;1.10;;
60016;SDS011;45869;52.698;6.210;2023-07-30T13:30:36;5.35;;;1.00;;
60016;SDS011;45869;52.698;6.210;2023-07-30T13:33:02;4.93;;;0.98;;
60016;SDS011;45869;52.698;6.210;2023-07-30T13:35:28;5.72;;;1.35;;
60016;SDS011;45869;52.698;6.210;2023-07-30T13:37:54;5.25;;;1.10;;
60016;SDS011;45869;52.698;6.210;2023-07-30T13:40:20;6.00;;;1.20;;
60016;SDS011;45869;52.698;6.210;2023-07-30T13:42:46;5.50;;;1.02;;
60016;SDS011;45869;52.698;6.210;2023-07-30T13:45:12;6.57;;;1.35;;
60016;SDS011;45869;52.698;6.210;2023-07-30T13:47:38;4.00;;;0.98;;
60016;SDS011;45869;52.698;6.210;2023-07-30T13:50:05;7.05;;;0.98;;
60016;SDS011;45869;52.698;6.210;2023-07-30T13:52:32;6.47;;;1.10;;
60016;SDS011;45869;52.698;6.210;2023-07-30T13:54:58;7.93;;;1.27;;
60016;SDS011;45869;52.698;6.210;2023-07-30T13:57:24;6.97;;;1.40;;
60016;SDS011;45869;52.698;6.210;2023-07-30T13:59:51;3.60;;;0.90;;
60016;SDS011;45869;52.698;6.210;2023-07-30T14:02:17;3.20;;;0.77;;
60016;SDS011;45869;52.698;6.210;2023-07-30T14:04:43;5.72;;;0.93;;
60016;SDS011;45869;52.698;6.210;2023-07-30T14:07:09;6.80;;;0.85;;
60016;SDS011;45869;52.698;6.210;2023-07-30T14:09:35;6.07;;;0.90;;
60016;SDS011;45869;52.698;6.210;2023-07-30T14:12:05;5.28;;;0.80;;
60016;SDS011;45869;52.698;6.210;2023-07-30T14:17:07;5.40;;;0.80;;
60016;SDS011;45869;52.698;6.210;2023-07-30T14:19:33;5.47;;;0.82;;
60016;SDS011;45869;52.698;6.210;2023-07-30T14:21:59;4.55;;;0.73;;
60016;SDS011;45869;52.698;6.210;2023-07-30T14:24:25;8.40;;;1.27;;
60016;SDS011;45869;52.698;6.210;2023-07-30T14:26:51;6.40;;;0.70;;
60016;SDS011;45869;52.698;6.210;2023-07-30T14:29:17;3.08;;;0.82;;
60016;SDS011;45869;52.698;6.210;2023-07-30T14:31:43;4.68;;;0.70;;
60016;SDS011;45869;52.698;6.210;2023-07-30T14:34:09;6.45;;;0.88;;
60016;SDS011;45869;52.698;6.210;2023-07-30T14:36:36;4.10;;;0.73;;
60016;SDS011;45869;52.698;6.210;2023-07-30T14:39:02;4.45;;;0.73;;
60016;SDS011;45869;52.698;6.210;2023-07-30T14:41:28;3.50;;;0.50;;
60016;SDS011;45869;52.698;6.210;2023-07-30T14:43:54;4.35;;;0.50;;
60016;SDS011;45869;52.698;6.210;2023-07-30T14:46:20;5.03;;;0.73;;
60016;SDS011;45869;52.698;6.210;2023-07-30T14:48:46;5.90;;;0.65;;
60016;SDS011;45869;52.698;6.210;2023-07-30T14:51:12;3.17;;;0.50;;
60016;SDS011;45869;52.698;6.210;2023-07-30T14:53:38;5.25;;;0.73;;
60016;SDS011;45869;52.698;6.210;2023-07-30T14:56:04;3.53;;;0.75;;